Новый

Карта отелей и гостиниц, располагающихся рядом с аэропортом Новый :

Новый
Хабаровск
Хабаровский край 48° 31' 41.9988" N, 135° 11' 17.9412" E
Код аэродрома ИКАО
UHHH
Код аэродрома RU
УХХХ
Координаты
N48.52833° E135.18832°
Превышение над уровнем моря
74
Основная полоса
05R/23L
Курс магнитный
053,8/233,8
Длина основной ВПП
4000
Ширина основной ВПП
60
Покрытие основной ВПП
Твёрдое
Освещение ВПП
Постоянное
Тип: 
Аэродром
Класс аэродрома: 
Международный
Принадлежность: 
ГА
Статус: 
Действующий
Сайт: 
http://www.airkhv.ru/
Страна: 
Россия
Регион: 
Хабаровский край
Город: 
Хабаровск
Дополнительная информация: 
Военный индекс: ЬХХХ/XHHH. Оператор: ОАО «Хабаровский аэропорт». Нкр.=(600)м.
Схемы аэропортов: 
Погода: 

Авиационная погода в аэропорту Новый

Регион: 
Погода METAR: 
UHHH 281200Z 18001MPS CAVOK 12/11 Q1011 R23R/090060 NOSIG RMK QFE752/1003
Время наблюдения
2021-09-28T12:00:00Z
Температура C
12.0
Точка росы
11.0
Направление ветра
180
Скорость ветра (узлы)
2
Метео видимость
6.21
Явления погоды
Условия полета
VFR
Аэропорт подробнее: 

Найти трансфер

С помощью этой формы Вы можете найти трансфер из аэропорта Новый в город, аэропорт или вокзал:

Карта места

Javascript is required to view this map.

Погода в аэропортах:

Авиационная погода в Волгограде

Регион: 
Погода METAR: 
URWW 281200Z 07005MPS 9999 -SHRA BKN037CB 12/08 Q1020 R06/010070 TEMPO 1200 TSRAGR BKN004 SCT020CB
Время наблюдения
2021-09-28T12:00:00Z
Температура C
12.0
Точка росы
8.0
Направление ветра
70
Скорость ветра (узлы)
10
Метео видимость
6.21
Явления погоды
-SHRA
Условия полета
VFR
Аэропорт подробнее: 

Авиационная погода в Кокшетау

Регион: 
Погода METAR: 
UACK 281000Z 09011MPS 7000 -RA OVC007 03/02 Q1010 R02/250250 NOSIG RMK QFE734/0979
Время наблюдения
2021-09-28T10:00:00Z
Температура C
3.0
Точка росы
2.0
Направление ветра
90
Скорость ветра (узлы)
21
Метео видимость
4.35
Явления погоды
-RA
Условия полета
IFR
Аэропорт подробнее: 

Авиационная погода в аэропорту Сокол

Регион: 
Погода METAR: 
UHMM 281200Z 07002MPS 9999 -SHRA OVC024CB 05/03 Q1005 RMK QFE739 R28/10003MPS
Время наблюдения
2021-09-28T12:00:00Z
Температура C
5.0
Точка росы
3.0
Направление ветра
70
Скорость ветра (узлы)
4
Метео видимость
6.21
Явления погоды
-SHRA
Условия полета
MVFR
Аэропорт подробнее: 

Авиационная погода в Трабзоне

Регион: 
Погода METAR: 
LTCG 281150Z 02005KT 340V060 9000 -SHRA BKN028 20/15 Q1018 NOSIG RMK RWY29 34004KT 300V010
Время наблюдения
2021-09-28T11:50:00Z
Температура C
20.0
Точка росы
15.0
Направление ветра
20
Скорость ветра (узлы)
5
Метео видимость
5.59
Явления погоды
-SHRA
Условия полета
MVFR